Time;durP1;ratioP1;P1;durP2;ratioP2;P2;SDS_P1;SDS_P2;PMS_P1;PMS_P2;Temp;Humidity;BMP_temperature;BMP_pressure;BME280_temperature;BME280_humidity;BME280_pressure;Samples;Min_cycle;Max_cycle;Signal;HPM_P1;HPM_P2
2023/02/07 00:01:15;;;;;;;20.90;12.90;;;;;;;-4.16;80.00;101318.71;106191;1251;75128;-75
2023/02/07 00:03:42;;;;;;;19.60;12.90;;;;;;;-4.06;79.53;101314.84;105972;1251;71709;-77
2023/02/07 00:06:14;;;;;;;19.90;13.30;;;;;;;-4.06;79.86;101313.46;106090;1251;72247;-77
2023/02/07 00:08:41;;;;;;;19.00;11.80;;;;;;;-4.06;80.12;101307.56;106025;1256;60406;-76
2023/02/07 00:11:09;;;;;;;15.40;11.50;;;;;;;-4.07;80.12;101310.02;106192;1257;61450;-76
2023/02/07 00:13:36;;;;;;;20.30;12.70;;;;;;;-4.12;80.01;101308.93;105903;1257;74582;-76
2023/02/07 00:16:04;;;;;;;21.50;12.70;;;;;;;-4.17;79.99;101309.91;105994;1251;71237;-76
2023/02/07 00:18:32;;;;;;;19.40;11.60;;;;;;;-4.24;79.96;101305.23;105933;1251;72124;-74
2023/02/07 00:21:07;;;;;;;19.50;12.50;;;;;;;-4.24;80.14;101302.64;105932;1253;62230;-77
2023/02/07 00:23:33;;;;;;;16.20;11.20;;;;;;;-4.12;80.18;101299.77;105965;1251;60473;-74
2023/02/07 00:26:04;;;;;;;18.60;12.50;;;;;;;-4.09;80.22;101297.11;105864;1257;73721;-76
2023/02/07 00:28:31;;;;;;;20.90;13.00;;;;;;;-4.10;80.46;101295.04;106645;1251;70536;-77
2023/02/07 00:31:17;;;;;;;16.40;11.00;;;;;;;-4.14;80.53;101291.14;107455;1252;70336;-76
2023/02/07 00:33:45;;;;;;;19.20;12.80;;;;;;;-4.20;80.57;101290.25;106055;1251;60395;-76
2023/02/07 00:36:14;;;;;;;19.20;12.00;;;;;;;-4.22;80.88;101289.63;105927;1251;60660;-77
2023/02/07 00:38:42;;;;;;;19.50;12.40;;;;;;;-4.23;81.01;101286.52;106050;1251;71792;-76
2023/02/07 00:41:13;;;;;;;19.00;11.60;;;;;;;-4.25;80.77;101283.46;106162;1251;69473;-76
2023/02/07 00:43:41;;;;;;;14.60;9.90;;;;;;;-4.19;80.56;101274.49;105861;1251;72600;-76
2023/02/07 00:46:07;;;;;;;16.10;11.10;;;;;;;-4.12;80.37;101276.56;106055;1251;60547;-76
2023/02/07 00:48:34;;;;;;;16.90;12.10;;;;;;;-4.14;80.41;101276.27;106029;1251;60541;-77
2023/02/07 00:51:01;;;;;;;17.90;11.60;;;;;;;-4.21;80.56;101279.73;105947;1251;73691;-76
2023/02/07 00:53:28;;;;;;;18.00;11.20;;;;;;;-4.28;80.82;101279.88;105964;1251;69182;-74
2023/02/07 00:55:55;;;;;;;17.30;11.20;;;;;;;-4.33;81.14;101276.73;107315;1257;70273;-76
2023/02/07 00:58:22;;;;;;;16.70;11.30;;;;;;;-4.36;81.22;101272.63;107369;1251;60572;-75
2023/02/07 01:00:49;;;;;;;18.50;11.90;;;;;;;-4.40;81.20;101268.05;106354;1251;60479;-75
2023/02/07 01:03:16;;;;;;;18.40;11.40;;;;;;;-4.41;81.46;101268.08;106115;1254;72626;-76
2023/02/07 01:05:44;;;;;;;18.00;10.80;;;;;;;-4.26;81.53;101262.91;106170;1251;71049;-77
2023/02/07 01:08:16;;;;;;;17.10;10.70;;;;;;;-4.08;81.34;101269.57;105814;1251;72694;-75
2023/02/07 01:10:43;;;;;;;20.70;12.30;;;;;;;-4.05;81.30;101270.02;106078;1250;60543;-73
2023/02/07 01:13:10;;;;;;;19.80;12.60;;;;;;;-4.06;81.48;101266.56;106211;1251;61587;-73
2023/02/07 01:15:38;;;;;;;18.00;12.70;;;;;;;-4.07;81.31;101266.41;106069;1254;74953;-71
2023/02/07 01:18:05;;;;;;;17.80;12.00;;;;;;;-4.09;81.38;101270.28;106027;1251;69573;-73
2023/02/07 01:20:33;;;;;;;16.90;10.80;;;;;;;-4.16;81.29;101263.85;105976;1251;74174;-74
2023/02/07 01:22:59;;;;;;;17.60;11.60;;;;;;;-4.23;81.33;101263.31;106028;1251;60426;-74
2023/02/07 01:25:26;;;;;;;16.50;11.00;;;;;;;-4.28;81.52;101262.25;105952;1256;61164;-74
2023/02/07 01:27:55;;;;;;;18.00;10.80;;;;;;;-4.18;81.46;101259.59;106081;1251;74662;-75
2023/02/07 01:30:22;;;;;;;15.80;10.20;;;;;;;-4.08;81.14;101258.83;105827;1251;71611;-75
2023/02/07 01:32:49;;;;;;;18.10;10.30;;;;;;;-4.06;81.50;101261.90;105955;1251;71420;-74
2023/02/07 01:35:17;;;;;;;13.90;9.20;;;;;;;-4.03;81.88;101258.19;106080;1251;60528;-75
2023/02/07 01:37:43;;;;;;;15.30;10.50;;;;;;;-4.02;81.98;101257.46;105858;1251;61360;-73
2023/02/07 01:40:11;;;;;;;16.20;10.10;;;;;;;-4.02;81.79;101256.59;105926;1254;75026;-74
2023/02/07 01:42:37;;;;;;;14.00;9.30;;;;;;;-4.04;81.81;101256.13;105987;1257;70114;-74
2023/02/07 01:45:17;;;;;;;15.30;9.70;;;;;;;-4.05;81.87;101254.60;105924;1253;72650;-74
2023/02/07 01:47:44;;;;;;;13.90;9.90;;;;;;;-4.06;81.99;101253.25;105722;1251;60494;-74
2023/02/07 01:50:12;;;;;;;14.60;11.00;;;;;;;-3.95;81.66;101252.97;105945;1256;60500;-72
2023/02/07 01:52:39;;;;;;;14.50;9.30;;;;;;;-3.88;81.43;101252.61;105740;1258;73897;-73
2023/02/07 01:55:09;;;;;;;16.20;10.10;;;;;;;-3.90;81.46;101248.85;105972;1251;71547;-73
2023/02/07 01:57:35;;;;;;;15.60;10.20;;;;;;;-3.95;81.67;101244.47;105998;1251;70853;-74
2023/02/07 02:00:02;;;;;;;14.10;9.60;;;;;;;-4.00;81.63;101246.86;106035;1252;60527;-74
2023/02/07 02:02:31;;;;;;;16.90;11.20;;;;;;;-4.06;81.81;101245.27;105796;1254;60418;-73
2023/02/07 02:04:57;;;;;;;18.70;11.40;;;;;;;-4.08;82.08;101251.21;105989;1251;73683;-74
2023/02/07 02:07:25;;;;;;;16.70;11.10;;;;;;;-4.09;82.22;101248.65;105953;1251;69482;-74
2023/02/07 02:09:53;;;;;;;15.60;10.70;;;;;;;-4.12;82.20;101253.73;106114;1251;73756;-73
2023/02/07 02:13:05;;;;;;;14.40;10.20;;;;;;;-4.02;82.04;101250.38;105875;1254;63095;-73
2023/02/07 02:16:01;;;;;;;16.70;10.80;;;;;;;-3.86;81.99;101244.08;106012;1254;60546;-72
2023/02/07 02:18:42;;;;;;;17.50;10.30;;;;;;;-3.92;81.77;101241.47;105928;1254;73305;-75
2023/02/07 02:21:24;;;;;;;15.00;11.00;;;;;;;-4.00;82.08;101239.76;105860;1251;69306;-74
2023/02/07 02:24:15;;;;;;;16.30;10.90;;;;;;;-4.07;82.08;101238.55;105835;1251;73827;-74
2023/02/07 02:26:59;;;;;;;20.00;13.10;;;;;;;-4.12;82.71;101232.95;105895;1251;60570;-73
2023/02/07 02:29:53;;;;;;;19.50;13.10;;;;;;;-4.12;82.80;101231.58;105863;1255;61233;-74
2023/02/07 02:32:42;;;;;;;24.00;12.70;;;;;;;-4.08;82.94;101230.80;106067;1253;73644;-74
2023/02/07 02:35:15;;;;;;;17.80;11.00;;;;;;;-3.90;82.39;101227.74;106011;1255;71259;-73
2023/02/07 02:38:01;;;;;;;17.70;11.70;;;;;;;-3.84;82.37;101224.29;106060;1256;72000;-73
2023/02/07 02:40:46;;;;;;;20.80;13.30;;;;;;;-3.83;82.68;101226.16;105889;1253;60474;-73
2023/02/07 02:43:18;;;;;;;26.30;15.90;;;;;;;-3.81;82.78;101225.42;105946;1253;60425;-73
2023/02/07 02:45:53;;;;;;;24.40;14.40;;;;;;;-3.78;82.87;101220.31;105919;1255;75063;-72
2023/02/07 02:48:19;;;;;;;21.90;13.90;;;;;;;-3.72;83.04;101221.55;106087;1255;69596;-74
2023/02/07 02:50:47;;;;;;;23.60;14.20;;;;;;;-3.70;83.01;101219.24;106085;1255;73944;-72
2023/02/07 02:53:13;;;;;;;23.30;14.70;;;;;;;-3.68;82.80;101222.86;105526;1260;61157;-72
2023/02/07 02:55:55;;;;;;;22.90;14.90;;;;;;;-3.56;82.59;101222.69;105709;1253;60443;-73
2023/02/07 02:58:32;;;;;;;20.50;14.40;;;;;;;-3.41;82.44;101227.29;105779;1251;72898;-74
2023/02/07 03:01:16;;;;;;;31.40;18.70;;;;;;;-3.38;82.43;101224.95;105861;1251;71330;-74
2023/02/07 03:04:05;;;;;;;26.60;17.20;;;;;;;-3.40;82.36;101224.31;105900;1253;72401;-74
2023/02/07 03:06:42;;;;;;;29.10;17.30;;;;;;;-3.40;82.47;101221.36;105819;1251;60503;-73
2023/02/07 03:09:13;;;;;;;25.80;17.20;;;;;;;-3.39;82.45;101224.30;105776;1251;60512;-72
2023/02/07 03:11:52;;;;;;;21.40;13.90;;;;;;;-3.39;82.46;101225.52;105999;1254;73216;-72
2023/02/07 03:14:22;;;;;;;20.90;12.80;;;;;;;-3.29;82.28;101227.30;105862;1253;69495;-70
2023/02/07 03:16:58;;;;;;;19.30;12.20;;;;;;;-3.16;81.97;101230.05;106034;1251;71781;-71
2023/02/07 03:19:39;;;;;;;18.10;11.10;;;;;;;-3.15;81.78;101226.55;106050;1255;60443;-73
2023/02/07 03:22:09;;;;;;;16.90;10.80;;;;;;;-3.21;81.69;101227.95;105806;1253;60415;-73
2023/02/07 03:24:38;;;;;;;17.20;11.20;;;;;;;-3.25;82.01;101223.90;106067;1254;72150;-72
2023/02/07 03:27:06;;;;;;;16.60;10.80;;;;;;;-3.29;81.79;101220.90;105921;1255;69505;-73
2023/02/07 03:29:34;;;;;;;16.00;10.70;;;;;;;-3.33;82.01;101219.10;105978;1253;72983;-73
2023/02/07 03:32:03;;;;;;;14.70;10.40;;;;;;;-3.32;82.05;101220.14;105944;1257;60546;-74
2023/02/07 03:34:38;;;;;;;18.90;12.30;;;;;;;-3.22;81.73;101218.27;106632;1251;60469;-75
2023/02/07 03:37:17;;;;;;;15.40;11.00;;;;;;;-3.14;81.50;101217.02;106226;1251;73645;-74
2023/02/07 03:39:44;;;;;;;19.00;12.60;;;;;;;-3.15;81.80;101213.38;106041;1251;69292;-74
2023/02/07 03:42:34;;;;;;;25.30;19.60;;;;;;;-3.16;81.92;101212.55;105923;1253;71955;-74
2023/02/07 03:45:01;;;;;;;28.20;20.40;;;;;;;-3.21;81.97;101214.76;105815;1256;60540;-73
2023/02/07 03:47:28;;;;;;;24.20;17.40;;;;;;;-3.21;82.28;101220.50;105935;1252;60416;-74
2023/02/07 03:49:54;;;;;;;29.90;19.70;;;;;;;-3.22;82.05;101222.60;106090;1254;75303;-75
2023/02/07 03:52:21;;;;;;;18.40;13.50;;;;;;;-3.24;82.15;101226.84;105855;1259;60547;-74
2023/02/07 03:54:48;;;;;;;18.10;11.40;;;;;;;-3.14;81.85;101223.09;106012;1251;73940;-73
2023/02/07 03:57:14;;;;;;;17.00;12.50;;;;;;;-3.08;81.35;101223.25;106061;1251;61465;-73
2023/02/07 03:59:41;;;;;;;19.60;12.60;;;;;;;-3.14;81.51;101224.12;105978;1250;60497;-74
2023/02/07 04:02:08;;;;;;;22.60;13.60;;;;;;;-3.17;81.78;101224.02;106048;1256;74089;-72
2023/02/07 04:04:35;;;;;;;23.30;15.50;;;;;;;-3.19;82.07;101227.02;105950;1251;71573;-73
2023/02/07 04:07:02;;;;;;;21.90;14.40;;;;;;;-3.19;82.17;101229.11;106022;1253;73722;-75
2023/02/07 04:09:29;;;;;;;22.30;14.10;;;;;;;-3.21;82.04;101230.04;105964;1252;61017;-72
2023/02/07 04:11:58;;;;;;;24.40;13.60;;;;;;;-3.21;82.08;101235.23;105828;1253;60402;-75
2023/02/07 04:14:24;;;;;;;18.10;13.20;;;;;;;-3.11;81.88;101241.52;106034;1251;73045;-75
2023/02/07 04:16:51;;;;;;;21.80;13.90;;;;;;;-3.01;81.59;101247.46;106062;1256;69289;-74
2023/02/07 04:19:18;;;;;;;19.70;13.70;;;;;;;-3.03;81.57;101250.83;106049;1252;71627;-74
2023/02/07 04:21:45;;;;;;;21.50;13.70;;;;;;;-3.09;81.69;101256.89;105719;1253;60353;-74
2023/02/07 04:24:11;;;;;;;22.30;14.40;;;;;;;-3.14;81.78;101257.20;105906;1252;60501;-74
2023/02/07 04:26:39;;;;;;;29.10;17.50;;;;;;;-3.19;81.87;101260.30;105967;1255;74011;-73
2023/02/07 04:29:06;;;;;;;28.80;14.50;;;;;;;-3.25;81.99;101259.77;105925;1256;60549;-73
2023/02/07 04:31:33;;;;;;;31.80;16.60;;;;;;;-3.17;81.79;101258.69;105935;1250;72877;-75
2023/02/07 04:34:00;;;;;;;29.90;17.70;;;;;;;-3.08;81.54;101257.23;105925;1256;60457;-75
2023/02/07 04:36:28;;;;;;;36.40;19.00;;;;;;;-3.09;81.85;101254.47;105914;1252;61460;-75
2023/02/07 04:38:56;;;;;;;44.10;23.10;;;;;;;-3.09;82.13;101259.16;105804;1258;73115;-73
2023/02/07 04:41:23;;;;;;;37.80;20.60;;;;;;;-3.08;82.24;101262.95;105908;1253;69368;-74
2023/02/07 04:43:51;;;;;;;38.10;20.00;;;;;;;-3.09;82.18;101268.34;106099;1253;71678;-74
2023/02/07 04:46:18;;;;;;;41.10;21.60;;;;;;;-3.11;82.00;101275.52;106059;1252;60525;-74
2023/02/07 04:48:47;;;;;;;37.30;20.90;;;;;;;-3.04;81.73;101276.02;105889;1251;60566;-74
2023/02/07 04:51:14;;;;;;;35.10;20.60;;;;;;;-2.97;81.80;101278.58;105885;1251;71720;-74
2023/02/07 04:53:44;;;;;;;38.30;23.70;;;;;;;-2.99;81.91;101281.21;106056;1252;71843;-74
2023/02/07 04:56:11;;;;;;;40.10;21.40;;;;;;;-3.03;82.09;101284.11;105927;1253;72695;-74
2023/02/07 04:58:38;;;;;;;35.20;22.00;;;;;;;-3.06;82.25;101286.10;105755;1257;60445;-73
2023/02/07 05:01:05;;;;;;;37.30;22.80;;;;;;;-3.09;82.22;101290.02;105922;1251;60630;-73
2023/02/07 05:03:31;;;;;;;34.70;20.50;;;;;;;-3.13;82.26;101294.45;105967;1253;74621;-74
2023/02/07 05:05:58;;;;;;;25.40;15.90;;;;;;;-3.05;81.97;101298.04;105882;1253;60510;-75
2023/02/07 05:08:24;;;;;;;26.20;16.20;;;;;;;-2.97;81.66;101298.51;105976;1253;72507;-74
2023/02/07 05:10:53;;;;;;;21.20;13.70;;;;;;;-3.02;81.70;101300.19;105879;1255;60578;-74
2023/02/07 05:13:21;;;;;;;19.90;13.10;;;;;;;-3.06;82.03;101300.33;106056;1253;61263;-74
2023/02/07 05:15:48;;;;;;;17.70;12.30;;;;;;;-3.08;82.21;101304.02;105850;1257;74009;-74
2023/02/07 05:18:14;;;;;;;17.30;11.70;;;;;;;-3.08;82.07;101305.93;105990;1253;71321;-73
2023/02/07 05:20:42;;;;;;;17.70;12.40;;;;;;;-3.11;82.11;101306.87;106133;1253;72615;-74
2023/02/07 05:23:09;;;;;;;19.70;11.00;;;;;;;-3.13;81.97;101312.48;106078;1253;60573;-74
2023/02/07 05:25:37;;;;;;;18.10;9.90;;;;;;;-3.07;81.73;101318.55;105997;1253;60534;-73
2023/02/07 05:28:04;;;;;;;14.80;9.90;;;;;;;-3.00;81.48;101315.92;106282;1253;74034;-73
2023/02/07 05:30:31;;;;;;;15.90;10.20;;;;;;;-3.05;81.56;101325.25;105957;1253;69455;-74
2023/02/07 05:33:05;;;;;;;24.00;12.20;;;;;;;-3.12;81.69;101327.36;105872;1257;72879;-74
2023/02/07 05:35:42;;;;;;;19.40;10.80;;;;;;;-3.17;81.94;101335.80;105688;1258;60502;-73
2023/02/07 05:38:13;;;;;;;17.00;10.80;;;;;;;-3.22;82.02;101334.39;105947;1254;61508;-74
2023/02/07 05:40:41;;;;;;;16.30;10.30;;;;;;;-3.27;82.01;101337.30;105951;1257;73080;-72
2023/02/07 05:43:08;;;;;;;15.50;9.40;;;;;;;-3.25;81.70;101343.83;106005;1253;71745;-74
2023/02/07 05:45:35;;;;;;;14.30;9.60;;;;;;;-3.16;81.55;101343.92;105992;1251;70036;-75
2023/02/07 05:48:02;;;;;;;15.60;9.80;;;;;;;-3.17;81.55;101344.30;105971;1253;60605;-74
2023/02/07 05:50:29;;;;;;;16.10;10.20;;;;;;;-3.23;81.66;101345.84;106031;1250;61124;-74
2023/02/07 05:53:05;;;;;;;17.80;11.00;;;;;;;-3.26;81.79;101344.90;106081;1256;73839;-73
2023/02/07 05:55:32;;;;;;;17.00;11.10;;;;;;;-3.32;81.74;101346.43;106046;1253;70383;-73
2023/02/07 05:57:59;;;;;;;16.50;10.20;;;;;;;-3.37;81.90;101349.30;106003;1253;72387;-74
2023/02/07 06:00:26;;;;;;;16.00;10.30;;;;;;;-3.39;81.59;101353.17;106097;1253;60553;-75
2023/02/07 06:02:52;;;;;;;13.90;10.10;;;;;;;-3.34;81.09;101352.02;106096;1253;60544;-79
2023/02/07 06:05:19;;;;;;;14.60;9.40;;;;;;;-3.28;80.93;101352.74;106027;1259;73757;-77
2023/02/07 06:07:46;;;;;;;14.70;10.20;;;;;;;-3.33;80.99;101357.20;106142;1251;181086;-78
2023/02/07 06:10:12;;;;;;;15.80;10.40;;;;;;;-3.38;81.17;101361.83;106700;1251;73763;-78
2023/02/07 06:13:51;;;;;;;17.30;11.20;;;;;;;-3.43;80.98;101363.88;102631;1294;603381;-78
2023/02/07 06:16:18;;;;;;;14.40;10.00;;;;;;;-3.51;81.04;101367.36;105114;1266;59282;-78
2023/02/07 06:18:45;;;;;;;14.00;9.90;;;;;;;-3.57;81.16;101366.27;105217;1267;59662;-78
2023/02/07 06:21:11;;;;;;;16.60;11.00;;;;;;;-3.49;81.13;101369.21;105107;1266;59379;-78
2023/02/07 06:23:38;;;;;;;15.50;11.40;;;;;;;-3.38;81.03;101369.96;105085;1267;71656;-79
2023/02/07 06:26:05;;;;;;;16.60;10.80;;;;;;;-3.38;81.04;101370.84;105898;1270;215729;-77
2023/02/07 06:28:32;;;;;;;17.80;12.00;;;;;;;-3.40;81.19;101372.45;107354;1253;58792;-77
2023/02/07 06:30:59;;;;;;;15.40;10.30;;;;;;;-3.39;81.31;101372.24;106863;1253;61450;-76
2023/02/07 06:33:28;;;;;;;20.60;12.60;;;;;;;-3.36;81.37;101374.61;106059;1259;73972;-76
2023/02/07 06:35:55;;;;;;;17.20;11.70;;;;;;;-3.34;81.14;101375.77;105684;1254;69440;-78
2023/02/07 06:38:22;;;;;;;20.70;12.20;;;;;;;-3.35;80.93;101378.73;105770;1254;73831;-78
2023/02/07 06:40:49;;;;;;;18.30;11.80;;;;;;;-3.27;80.73;101381.29;106019;1254;60119;-77
2023/02/07 06:43:16;;;;;;;16.80;12.00;;;;;;;-3.14;80.49;101383.90;105945;1254;61141;-77
2023/02/07 06:45:43;;;;;;;17.20;13.00;;;;;;;-3.12;80.55;101392.70;105857;1254;73282;-77
2023/02/07 06:48:10;;;;;;;17.60;12.90;;;;;;;-3.13;80.44;101397.04;106091;1254;69669;-78
2023/02/07 06:50:37;;;;;;;17.60;13.70;;;;;;;-3.13;80.45;101396.38;106475;1256;73870;-77
2023/02/07 06:53:04;;;;;;;20.60;14.40;;;;;;;-3.16;80.07;101400.95;106787;1253;59573;-78
2023/02/07 06:55:31;;;;;;;23.30;15.40;;;;;;;-3.23;79.78;101401.28;105873;1259;59564;-78
2023/02/07 06:57:58;;;;;;;22.40;14.40;;;;;;;-3.27;79.99;101404.88;105865;1259;74150;-77
2023/02/07 07:00:25;;;;;;;22.90;13.80;;;;;;;-3.26;80.16;101410.91;105834;1254;70343;-77
2023/02/07 07:02:52;;;;;;;18.80;13.20;;;;;;;-3.14;79.78;101415.80;105862;1256;73384;-78
2023/02/07 07:05:19;;;;;;;18.00;12.70;;;;;;;-3.02;79.44;101415.15;105946;1256;60666;-76
2023/02/07 07:07:47;;;;;;;16.70;12.20;;;;;;;-3.03;79.35;101420.02;106076;1254;59752;-77
2023/02/07 07:10:14;;;;;;;18.50;13.30;;;;;;;-3.07;79.01;101419.27;105846;1258;73353;-74
2023/02/07 07:12:42;;;;;;;17.80;12.60;;;;;;;-3.11;79.12;101421.27;105873;1258;71583;-77
2023/02/07 07:15:09;;;;;;;20.30;12.80;;;;;;;-3.12;79.11;101419.91;105833;1258;71952;-75
2023/02/07 07:17:36;;;;;;;19.30;12.30;;;;;;;-3.11;78.88;101419.89;105787;1254;59675;-79
2023/02/07 07:20:03;;;;;;;17.80;13.20;;;;;;;-3.13;78.94;101419.57;105851;1253;61629;-78
2023/02/07 07:22:31;;;;;;;17.10;11.00;;;;;;;-3.09;78.77;101421.23;105920;1258;73327;-77
2023/02/07 07:24:58;;;;;;;15.30;10.50;;;;;;;-2.96;78.44;101418.63;105997;1254;70433;-78
2023/02/07 07:27:25;;;;;;;17.10;11.70;;;;;;;-2.83;78.15;101417.93;105976;1254;71726;-78
2023/02/07 07:29:52;;;;;;;17.10;11.90;;;;;;;-2.83;77.97;101421.58;106250;1254;59634;-79
2023/02/07 07:32:18;;;;;;;16.90;11.20;;;;;;;-2.85;77.81;101423.02;106750;1254;60496;-77
2023/02/07 07:35:01;;;;;;;16.50;12.40;;;;;;;-2.85;77.50;101422.13;107628;1254;73923;-77
2023/02/07 07:37:29;;;;;;;14.90;11.20;;;;;;;-2.84;77.39;101419.52;106811;1254;71499;-78
2023/02/07 07:39:56;;;;;;;15.20;10.40;;;;;;;-2.81;77.28;101420.48;106277;1254;72606;-77
2023/02/07 07:42:23;;;;;;;14.60;10.70;;;;;;;-2.72;77.06;101425.61;106171;1254;61755;-79
2023/02/07 07:45:19;;;;;;;16.40;10.40;;;;;;;-2.42;76.71;101435.36;105859;1254;59752;-77
2023/02/07 07:47:46;;;;;;;14.80;10.20;;;;;;;-2.17;76.66;101436.20;105989;1254;71872;-77
2023/02/07 07:50:13;;;;;;;14.70;9.90;;;;;;;-2.00;76.34;101436.76;106006;1254;68321;-78
2023/02/07 07:52:41;;;;;;;13.90;10.40;;;;;;;-1.89;75.80;101440.92;105809;1254;72386;-77
2023/02/07 07:55:09;;;;;;;12.10;9.40;;;;;;;-1.82;75.09;101440.36;105862;1253;59719;-79
2023/02/07 07:57:35;;;;;;;14.20;10.60;;;;;;;-1.78;74.53;101444.41;105731;1259;61636;-79
2023/02/07 08:00:03;;;;;;;12.20;9.10;;;;;;;-1.77;74.03;101442.98;105800;1258;72013;-78
2023/02/07 08:02:40;;;;;;;14.10;10.00;;;;;;;-1.79;73.45;101442.89;106077;1253;68998;-78
2023/02/07 08:05:07;;;;;;;13.30;9.70;;;;;;;-1.81;73.04;101447.98;106052;1256;73602;-78
2023/02/07 08:07:34;;;;;;;15.00;10.60;;;;;;;-1.82;72.74;101452.17;106007;1254;60800;-78
2023/02/07 08:10:01;;;;;;;17.50;10.90;;;;;;;-1.72;72.57;101452.93;105916;1254;59932;-78
2023/02/07 08:12:28;;;;;;;14.30;9.90;;;;;;;-1.49;72.50;101455.85;106430;1254;71819;-78
2023/02/07 08:14:55;;;;;;;16.10;12.40;;;;;;;-1.26;72.90;101461.36;106970;1257;71695;-77
2023/02/07 08:17:22;;;;;;;19.70;12.80;;;;;;;-0.94;73.32;101467.08;107629;1254;73701;-78
2023/02/07 08:19:49;;;;;;;19.70;13.90;;;;;;;-0.57;72.99;101474.69;107202;1254;59291;-78
2023/02/07 08:22:15;;;;;;;19.50;12.60;;;;;;;-0.18;72.44;101475.36;108183;1254;60286;-78
2023/02/07 08:24:42;;;;;;;16.10;12.10;;;;;;;0.15;71.68;101479.52;106509;1258;73798;-80
2023/02/07 08:27:09;;;;;;;15.00;11.40;;;;;;;0.37;70.89;101482.35;106223;1254;69989;-80
2023/02/07 08:29:36;;;;;;;16.60;12.70;;;;;;;0.45;69.13;101483.23;105978;1254;72052;-80
2023/02/07 08:32:04;;;;;;;17.30;12.70;;;;;;;0.35;68.88;101486.57;106053;1254;60299;-79
2023/02/07 08:34:36;;;;;;;18.30;12.70;;;;;;;0.30;68.71;101485.92;106166;1254;59768;-80
2023/02/07 08:37:07;;;;;;;16.50;12.40;;;;;;;0.24;68.54;101486.51;106378;1253;72104;-79
2023/02/07 08:39:34;;;;;;;14.20;11.20;;;;;;;0.12;68.37;101485.55;107612;1254;70169;-78
2023/02/07 08:42:04;;;;;;;17.20;11.80;;;;;;;-0.04;68.18;101488.94;107106;1254;73609;-79
2023/02/07 08:44:34;;;;;;;16.80;12.00;;;;;;;-0.21;67.77;101492.52;106841;1254;61247;-79
2023/02/07 08:47:01;;;;;;;15.80;10.90;;;;;;;-0.27;67.89;101498.66;106473;1254;59733;-79
2023/02/07 08:49:28;;;;;;;15.30;11.00;;;;;;;-0.29;67.92;101498.38;105904;1259;72133;-79
2023/02/07 08:51:55;;;;;;;17.60;12.70;;;;;;;-0.30;68.15;101492.84;106301;1258;68769;-77
2023/02/07 08:54:22;;;;;;;16.80;12.70;;;;;;;-0.33;67.64;101496.45;106020;1254;72671;-78
2023/02/07 08:56:49;;;;;;;14.10;11.00;;;;;;;-0.43;67.70;101498.73;106137;1254;59678;-78
2023/02/07 08:59:15;;;;;;;16.80;11.70;;;;;;;-0.44;67.78;101496.66;107225;1254;61684;-78
2023/02/07 09:01:42;;;;;;;13.40;10.30;;;;;;;-0.50;67.40;101497.58;106180;1254;70840;-77
2023/02/07 09:04:10;;;;;;;16.40;12.20;;;;;;;-0.59;67.34;101496.50;105840;1254;69283;-79
2023/02/07 09:06:38;;;;;;;14.60;11.10;;;;;;;-0.46;67.58;101499.00;105880;1254;72968;-79
2023/02/07 09:09:05;;;;;;;14.90;12.10;;;;;;;-0.37;67.79;101496.05;105799;1254;59707;-79
2023/02/07 09:11:31;;;;;;;18.30;14.20;;;;;;;-0.05;67.89;101499.96;105850;1254;60061;-78
2023/02/07 09:13:58;;;;;;;16.90;12.90;;;;;;;0.43;68.31;101495.88;105944;1254;71403;-80
2023/02/07 09:16:25;;;;;;;20.40;14.50;;;;;;;0.89;67.43;101493.32;105970;1254;71446;-80
2023/02/07 09:18:52;;;;;;;20.40;14.50;;;;;;;1.27;67.16;101490.01;106011;1254;72715;-80
2023/02/07 09:21:18;;;;;;;19.20;15.60;;;;;;;1.56;66.04;101488.58;105872;1259;59772;-81
2023/02/07 09:23:45;;;;;;;20.60;13.90;;;;;;;1.70;65.44;101491.48;107199;1254;60318;-79
2023/02/07 09:26:18;;;;;;;19.00;14.20;;;;;;;1.79;64.85;101492.98;106258;1259;73074;-81
2023/02/07 09:28:44;;;;;;;19.00;14.00;;;;;;;1.86;64.29;101489.36;106136;1254;69262;-81
2023/02/07 09:31:12;;;;;;;19.40;14.50;;;;;;;2.01;63.88;101486.05;105886;1254;71804;-81
2023/02/07 09:33:40;;;;;;;20.00;14.80;;;;;;;2.33;63.42;101485.62;106061;1257;59736;-83
2023/02/07 09:36:24;;;;;;;17.70;14.00;;;;;;;2.72;63.46;101486.02;105962;1254;61563;-82
2023/02/07 09:38:51;;;;;;;18.30;13.70;;;;;;;2.92;61.84;101480.14;106488;1254;72349;-80
2023/02/07 09:41:25;;;;;;;17.40;12.30;;;;;;;2.78;60.71;101483.98;108068;1254;70512;-79
2023/02/07 09:43:57;;;;;;;18.60;12.80;;;;;;;2.58;61.27;101481.80;108229;1256;70077;-80
2023/02/07 09:46:29;;;;;;;15.80;11.90;;;;;;;2.61;62.22;101478.88;107870;1253;59208;-81
2023/02/07 09:49:17;;;;;;;14.40;11.10;;;;;;;3.03;62.85;101480.83;107712;1254;59714;-81
2023/02/07 09:51:44;;;;;;;14.20;10.40;;;;;;;3.32;59.76;101484.63;106201;1254;73276;-80
2023/02/07 09:54:29;;;;;;;14.00;10.70;;;;;;;3.28;60.92;101485.67;106007;1253;70573;-80
2023/02/07 09:56:56;;;;;;;14.90;9.60;;;;;;;3.13;59.76;101485.23;106074;1254;73647;-79
2023/02/07 09:59:43;;;;;;;13.40;9.40;;;;;;;2.82;58.65;101480.98;106336;1254;59714;-80
2023/02/07 10:02:16;;;;;;;12.80;9.80;;;;;;;2.39;58.31;101480.80;106009;1254;60196;-79
2023/02/07 10:04:43;;;;;;;12.40;8.80;;;;;;;1.94;57.90;101485.13;106048;1257;74009;-78
2023/02/07 10:07:12;;;;;;;10.60;8.50;;;;;;;1.51;58.72;101487.03;105699;1254;71682;-79
2023/02/07 10:09:40;;;;;;;10.30;8.60;;;;;;;1.22;59.53;101492.33;105665;1254;73757;-79
2023/02/07 10:12:32;;;;;;;12.40;7.80;;;;;;;1.01;58.79;101495.27;105649;1254;59689;-79
2023/02/07 10:15:21;;;;;;;11.60;8.60;;;;;;;0.75;58.96;101494.44;105936;1256;61663;-79
2023/02/07 10:18:06;;;;;;;10.60;8.00;;;;;;;0.49;58.97;101501.22;105915;1256;74473;-79
2023/02/07 10:20:38;;;;;;;11.90;7.60;;;;;;;0.25;58.91;101500.75;105955;1253;69892;-78
2023/02/07 10:23:17;;;;;;;11.00;8.20;;;;;;;0.06;59.25;101506.16;107542;1254;71853;-77
2023/02/07 10:25:56;;;;;;;11.00;7.80;;;;;;;-0.07;59.51;101507.88;106699;1253;60570;-78
2023/02/07 10:28:44;;;;;;;12.00;7.70;;;;;;;-0.20;59.93;101508.69;106089;1254;60450;-76
2023/02/07 10:31:15;;;;;;;10.20;7.40;;;;;;;-0.34;59.40;101515.13;105936;1254;73615;-78
2023/02/07 10:33:48;;;;;;;9.60;6.80;;;;;;;-0.51;59.64;101520.56;106535;1252;71655;-79
2023/02/07 10:36:15;;;;;;;11.80;7.90;;;;;;;-0.66;59.60;101517.64;105957;1254;71418;-78
2023/02/07 10:38:53;;;;;;;11.50;7.60;;;;;;;-0.78;60.26;101519.23;105724;1259;60444;-79
2023/02/07 10:41:38;;;;;;;9.70;6.70;;;;;;;-0.89;60.30;101521.70;105930;1253;60377;-79
2023/02/07 10:44:09;;;;;;;10.20;7.30;;;;;;;-0.98;60.57;101525.98;106069;1254;74275;-78
2023/02/07 10:46:36;;;;;;;9.70;6.80;;;;;;;-1.05;60.77;101523.62;106405;1254;71176;-78
2023/02/07 10:49:03;;;;;;;10.10;7.10;;;;;;;-1.12;60.77;101526.27;105807;1253;73786;-78
2023/02/07 10:51:36;;;;;;;10.00;6.80;;;;;;;-1.18;61.08;101531.52;106644;1254;60739;-78
2023/02/07 10:54:07;;;;;;;9.90;7.30;;;;;;;-1.23;61.30;101526.45;107564;1254;61339;-78
2023/02/07 10:56:39;;;;;;;11.10;7.80;;;;;;;-1.28;61.50;101523.66;106269;1256;74168;-78
2023/02/07 10:59:31;;;;;;;10.50;7.30;;;;;;;-1.30;61.56;101528.77;105999;1257;70509;-78
2023/02/07 11:01:58;;;;;;;10.70;7.10;;;;;;;-1.34;61.95;101532.21;106009;1252;73776;-78
2023/02/07 11:04:36;;;;;;;11.80;6.90;;;;;;;-1.37;61.38;101532.97;107684;1258;59280;-77
2023/02/07 11:07:04;;;;;;;11.40;7.20;;;;;;;-1.40;61.46;101531.31;106589;1254;61615;-78
2023/02/07 11:09:36;;;;;;;8.90;6.70;;;;;;;-1.40;60.80;101533.73;106454;1254;72585;-79
2023/02/07 11:12:15;;;;;;;8.10;5.60;;;;;;;-1.40;60.77;101533.59;105907;1259;71430;-79
2023/02/07 11:14:58;;;;;;;8.00;5.30;;;;;;;-1.39;60.78;101532.68;105976;1256;71771;-80
2023/02/07 11:17:25;;;;;;;8.90;5.80;;;;;;;-1.34;61.31;101535.69;105659;1252;60515;-81
2023/02/07 11:19:52;;;;;;;8.30;6.00;;;;;;;-1.33;60.79;101534.27;105937;1254;60984;-80